Time;durP1;ratioP1;P1;durP2;ratioP2;P2;SDS_P1;SDS_P2;PMS_P1;PMS_P2;Temp;Humidity;BMP_temperature;BMP_pressure;BME280_temperature;BME280_humidity;BME280_pressure;Samples;Min_cycle;Max_cycle;Signal;HPM_P1;HPM_P2
2023/03/21 00:00:46;;;;;;;29.30;15.32;;;;;;;;;;5073864;28;20043;-90
2023/03/21 00:03:13;;;;;;;20.65;12.85;;;8.30;99.90;;;;;;5066750;28;20417;-88
2023/03/21 00:05:50;;;;;;;20.83;13.93;;;8.60;99.90;;;;;;5078984;28;20123;-89
2023/03/21 00:08:16;;;;;;;22.23;13.52;;;;;;;;;;5073201;28;20044;-89
2023/03/21 00:10:42;;;;;;;22.98;13.70;;;8.60;99.90;;;;;;5058913;28;20080;-90
2023/03/21 00:13:11;;;;;;;29.45;14.55;;;;;;;;;;5062053;28;20047;-90
2023/03/21 00:15:48;;;;;;;32.92;14.80;;;;;;;;;;5081978;28;20473;-89
2023/03/21 00:18:15;;;;;;;37.78;15.35;;;8.60;99.90;;;;;;5093881;28;20635;-89
2023/03/21 00:20:45;;;;;;;46.35;17.40;;;;;;;;;;5065242;28;20070;-89
2023/03/21 00:23:11;;;;;;;33.58;15.95;;;;;;;;;;5077235;28;20040;-89
2023/03/21 00:25:37;;;;;;;51.53;18.58;;;;;;;;;;5063726;28;21828;-89
2023/03/21 00:28:03;;;;;;;70.90;21.60;;;;;;;;;;5063936;28;20124;-89
2023/03/21 00:30:29;;;;;;;55.20;20.58;;;;;;;;;;5077234;28;20368;-89
2023/03/21 00:32:55;;;;;;;63.70;20.67;;;;;;;;;;5074587;28;20048;-89
2023/03/21 00:35:22;;;;;;;93.03;23.42;;;;;;;;;;5094161;28;20105;-89
2023/03/21 00:37:48;;;;;;;121.13;27.05;;;;;;;;;;5066709;28;20076;-89
2023/03/21 00:40:13;;;;;;;89.95;23.80;;;8.60;99.90;;;;;;5070401;28;20050;-89
2023/03/21 00:42:57;;;;;;;98.03;25.13;;;8.70;99.90;;;;;;5090146;28;20398;-90
2023/03/21 00:45:36;;;;;;;82.90;25.65;;;8.60;99.90;;;;;;5097464;28;20039;-90
2023/03/21 00:48:04;;;;;;;109.95;27.20;;;12.00;99.90;;;;;;5109090;28;20043;-89
2023/03/21 00:50:31;;;;;;;71.82;25.35;;;8.60;99.90;;;;;;5090560;28;20332;-90
2023/03/21 00:52:57;;;;;;;101.80;26.50;;;9.30;99.90;;;;;;5069672;28;20079;-91
2023/03/21 00:55:22;;;;;;;93.22;27.08;;;11.40;99.90;;;;;;5070577;28;20082;-91
2023/03/21 00:57:48;;;;;;;97.03;27.90;;;8.60;99.90;;;;;;5066610;28;20048;-89
2023/03/21 01:00:20;;;;;;;102.03;26.45;;;9.20;99.90;;;;;;5070248;28;20066;-90
2023/03/21 01:02:55;;;;;;;94.53;27.75;;;8.60;99.90;;;;;;5065056;28;20054;-89
2023/03/21 01:06:01;;;;;;;75.32;26.30;;;8.80;99.90;;;;;;5058647;28;20142;-90
2023/03/21 01:08:13;;;;;;;104.72;28.50;;;8.60;99.90;;;;;;5089533;28;20074;-90
2023/03/21 01:10:44;;;;;;;107.50;28.55;;;8.50;99.90;;;;;;5064497;28;20039;-90
2023/03/21 01:13:11;;;;;;;73.88;26.10;;;8.50;99.90;;;;;;5076468;28;20127;-88
2023/03/21 01:15:43;;;;;;;71.55;24.67;;;9.00;99.90;;;;;;5059592;28;20052;-90
2023/03/21 01:18:09;;;;;;;63.47;22.70;;;;;;;;;;5052894;28;20073;-89
2023/03/21 01:20:35;;;;;;;49.38;20.73;;;;;;;;;;5065783;28;20206;-90
2023/03/21 01:23:01;;;;;;;44.22;18.50;;;8.60;99.90;;;;;;5075458;28;20096;-90
2023/03/21 01:25:27;;;;;;;43.38;19.58;;;11.70;99.90;;;;;;5073159;28;20441;-89
2023/03/21 01:27:53;;;;;;;45.35;20.13;;;9.00;99.90;;;;;;5079267;28;20035;-90
2023/03/21 01:30:19;;;;;;;41.63;19.48;;;8.60;99.90;;;;;;5079978;28;20050;-89
2023/03/21 01:32:46;;;;;;;54.47;19.67;;;;;;;;;;5096772;28;20075;-89
2023/03/21 01:35:15;;;;;;;51.00;20.60;;;8.70;99.90;;;;;;5080798;28;20050;-89
2023/03/21 01:37:42;;;;;;;54.47;21.10;;;8.70;99.90;;;;;;5061953;28;20040;-89
2023/03/21 01:40:11;;;;;;;59.22;22.02;;;8.60;99.90;;;;;;5081796;28;20032;-90
2023/03/21 01:42:38;;;;;;;54.63;21.90;;;8.70;99.90;;;;;;5076008;28;20128;-89
2023/03/21 01:45:42;;;;;;;53.95;21.08;;;8.60;99.90;;;;;;5071644;28;20054;-90
2023/03/21 01:48:08;;;;;;;48.60;21.13;;;8.80;99.90;;;;;;5072894;28;20647;-89
2023/03/21 01:50:35;;;;;;;45.40;19.75;;;10.10;99.90;;;;;;5074082;28;20555;-90
2023/03/21 01:53:02;;;;;;;48.55;20.33;;;;;;;;;;5093326;27;20047;-90
2023/03/21 01:55:29;;;;;;;55.88;21.08;;;8.70;99.90;;;;;;5076203;28;20050;-90
2023/03/21 01:57:56;;;;;;;43.42;20.13;;;8.70;99.90;;;;;;5077680;28;20043;-90
2023/03/21 02:00:25;;;;;;;43.33;20.65;;;8.70;99.90;;;;;;5075933;28;20097;-90
2023/03/21 02:02:54;;;;;;;45.08;21.55;;;8.70;99.90;;;;;;5093824;28;20042;-90
2023/03/21 02:05:39;;;;;;;54.80;23.85;;;11.50;99.90;;;;;;5075454;28;20047;-91
2023/03/21 02:08:04;;;;;;;44.65;21.92;;;11.50;99.90;;;;;;5093344;28;20075;-89
2023/03/21 02:10:31;;;;;;;38.35;20.48;;;8.80;99.90;;;;;;5074020;28;20453;-90
2023/03/21 02:13:08;;;;;;;45.55;21.83;;;11.00;99.90;;;;;;5066163;28;20031;-90
2023/03/21 02:15:36;;;;;;;36.33;20.40;;;11.00;99.90;;;;;;5064508;28;21654;-90
2023/03/21 02:18:18;;;;;;;35.55;20.40;;;8.70;99.90;;;;;;5085294;28;20036;-91
2023/03/21 02:21:02;;;;;;;33.17;20.23;;;8.70;99.90;;;;;;5081167;28;20036;-90
2023/03/21 02:23:52;;;;;;;33.47;19.55;;;8.70;99.90;;;;;;5058147;28;20038;-90
2023/03/21 02:27:10;;;;;;;38.00;20.75;;;8.70;99.90;;;;;;5060516;28;20392;-90
2023/03/21 02:29:54;;;;;;;33.38;18.95;;;8.70;99.90;;;;;;5056640;28;20491;-90
2023/03/21 02:32:39;;;;;;;35.10;19.73;;;11.60;99.90;;;;;;5070740;28;20089;-90
2023/03/21 02:35:42;;;;;;;28.52;18.25;;;8.70;99.90;;;;;;5047024;28;20048;-91
2023/03/21 02:38:22;;;;;;;37.00;20.48;;;8.40;99.90;;;;;;5066127;28;20054;-90
2023/03/21 02:40:57;;;;;;;28.13;17.48;;;8.90;99.90;;;;;;5045602;28;20495;-90
2023/03/21 02:43:25;;;;;;;;;;;9.40;99.90;;;;;;5046668;28;20200;-91
2023/03/21 02:46:04;;;;;;;26.88;17.83;;;8.70;99.90;;;;;;5049517;28;19920;-90
2023/03/21 02:48:54;;;;;;;30.17;20.02;;;9.40;99.90;;;;;;5063866;28;20404;-91
2023/03/21 02:51:22;;;;;;;28.70;18.55;;;8.80;99.90;;;;;;5051378;28;20093;-90
2023/03/21 02:53:57;;;;;;;26.95;18.88;;;12.20;99.90;;;;;;5087876;28;20066;-91
2023/03/21 02:56:24;;;;;;;28.15;18.73;;;8.80;99.90;;;;;;5045933;28;20044;-90
2023/03/21 02:58:52;;;;;;;30.65;19.77;;;11.40;99.90;;;;;;5044964;28;20367;-89
2023/03/21 03:01:17;;;;;;;25.83;18.63;;;8.80;99.90;;;;;;5061035;28;20036;-90
2023/03/21 03:03:46;;;;;;;23.95;17.02;;;;;;;;;;5065915;28;20035;-90
2023/03/21 03:06:43;;;;;;;26.23;18.52;;;8.80;99.90;;;;;;5084797;28;20078;-89
2023/03/21 03:09:21;;;;;;;27.17;18.60;;;10.60;99.90;;;;;;5058321;28;20149;-90
2023/03/21 03:11:54;;;;;;;31.58;19.73;;;8.80;99.90;;;;;;5052253;28;20043;-89
2023/03/21 03:14:43;;;;;;;23.73;16.92;;;9.60;99.90;;;;;;5067164;28;20048;-90
2023/03/21 03:17:22;;;;;;;29.13;19.15;;;9.70;99.90;;;;;;5083451;28;20071;-90
2023/03/21 03:20:10;;;;;;;22.90;17.60;;;11.60;99.90;;;;;;5045869;28;20033;-88
2023/03/21 03:22:45;;;;;;;23.13;17.98;;;8.70;99.90;;;;;;5062942;28;20055;-90
2023/03/21 03:25:17;;;;;;;25.83;18.17;;;8.60;99.90;;;;;;5067052;28;20046;-90
2023/03/21 03:27:43;;;;;;;23.70;16.50;;;8.30;99.90;;;;;;5065326;28;20039;-90
2023/03/21 03:30:13;;;;;;;31.58;19.63;;;7.00;99.90;;;;;;5050589;28;20042;-90
2023/03/21 03:32:39;;;;;;;28.05;17.55;;;;;;;;;;5067006;28;20658;-90
2023/03/21 03:35:05;;;;;;;23.52;17.00;;;8.80;99.90;;;;;;5089897;28;20473;-89
2023/03/21 03:37:33;;;;;;;24.00;16.80;;;8.80;99.90;;;;;;5070588;28;20040;-90
2023/03/21 03:40:05;;;;;;;28.92;18.20;;;8.70;99.90;;;;;;5086330;28;20108;-89
2023/03/21 03:42:37;;;;;;;24.63;17.73;;;8.80;99.90;;;;;;5072706;28;20506;-89
2023/03/21 03:45:08;;;;;;;27.23;17.20;;;8.80;99.90;;;;;;5085481;28;20043;-90
2023/03/21 03:47:51;;;;;;;25.00;17.50;;;8.80;99.90;;;;;;5063805;28;20039;-90
2023/03/21 03:50:25;;;;;;;24.20;16.60;;;8.00;99.90;;;;;;5064678;28;20114;-90
2023/03/21 03:52:55;;;;;;;28.05;18.30;;;8.80;99.90;;;;;;5060060;28;20776;-90
2023/03/21 03:55:25;;;;;;;28.17;17.83;;;9.40;99.90;;;;;;5079093;28;20050;-89
2023/03/21 03:57:52;;;;;;;31.27;17.65;;;;;;;;;;5063603;28;20060;-90
2023/03/21 04:00:19;;;;;;;28.67;16.83;;;8.80;99.90;;;;;;5064487;28;20049;-91
2023/03/21 04:02:46;;;;;;;25.73;16.08;;;;;;;;;;5097632;28;20051;-89
2023/03/21 04:05:12;;;;;;;24.92;17.10;;;8.80;99.90;;;;;;5060571;28;20067;-89
2023/03/21 04:07:38;;;;;;;23.38;15.68;;;12.20;99.90;;;;;;5066042;28;20127;-89
2023/03/21 04:10:04;;;;;;;27.90;16.85;;;8.80;99.90;;;;;;5059996;28;20118;-89
2023/03/21 04:12:33;;;;;;;23.63;14.93;;;8.70;99.90;;;;;;5095150;28;20251;-90
2023/03/21 04:14:58;;;;;;;24.45;14.80;;;8.80;99.90;;;;;;5079599;28;20047;-89
2023/03/21 04:17:24;;;;;;;22.35;14.00;;;;;;;;;;5078059;28;20391;-89
2023/03/21 04:19:50;;;;;;;25.92;14.73;;;8.80;99.90;;;;;;5068354;28;20078;-90
2023/03/21 04:22:16;;;;;;;21.75;12.98;;;;;;;;;;5072159;27;20101;-90
2023/03/21 04:24:43;;;;;;;23.63;13.65;;;;;;;;;;5088851;28;20031;-89
2023/03/21 04:27:09;;;;;;;24.92;14.60;;;9.00;99.90;;;;;;5071286;28;20398;-89
2023/03/21 04:29:35;;;;;;;19.30;12.88;;;12.00;99.90;;;;;;5062492;28;20032;-90
2023/03/21 04:32:01;;;;;;;27.83;14.15;;;;;;;;;;5072021;28;20498;-89
2023/03/21 04:34:27;;;;;;;21.88;12.75;;;;;;;;;;5086869;28;20043;-89
2023/03/21 04:36:53;;;;;;;22.33;12.93;;;8.80;99.90;;;;;;5078619;28;20044;-90
2023/03/21 04:39:20;;;;;;;22.25;13.48;;;;;;;;;;5069817;28;20036;-90
2023/03/21 04:41:47;;;;;;;24.42;12.02;;;;;;;;;;5082955;28;20052;-89
2023/03/21 04:44:14;;;;;;;22.33;12.98;;;8.80;99.90;;;;;;5068826;28;20044;-87
2023/03/21 04:46:40;;;;;;;24.67;13.45;;;9.10;99.90;;;;;;5096873;28;20032;-90
2023/03/21 04:49:10;;;;;;;21.98;14.02;;;11.60;99.90;;;;;;5077161;28;20035;-89
2023/03/21 04:51:36;;;;;;;23.30;13.80;;;9.50;99.90;;;;;;5074270;28;20040;-89
2023/03/21 04:54:02;;;;;;;24.23;13.80;;;;;;;;;;5063416;28;20428;-90
2023/03/21 04:56:32;;;;;;;21.73;13.88;;;8.80;99.90;;;;;;5061985;28;20071;-89
2023/03/21 04:59:07;;;;;;;26.88;13.88;;;8.80;99.90;;;;;;5077500;28;20050;-90
2023/03/21 05:01:34;;;;;;;28.77;14.75;;;;;;;;;;5072447;28;20040;-90
2023/03/21 05:04:01;;;;;;;27.05;15.13;;;8.80;99.90;;;;;;5086697;28;20047;-89
2023/03/21 05:06:27;;;;;;;30.25;16.20;;;;;;;;;;5077901;28;20036;-90
2023/03/21 05:09:15;;;;;;;35.95;17.55;;;8.80;99.90;;;;;;5088923;28;20122;-89
2023/03/21 05:11:41;;;;;;;31.52;17.15;;;;;;;;;;5082952;28;20104;-89
2023/03/21 05:14:14;;;;;;;31.83;17.05;;;8.80;99.90;;;;;;5071805;28;20092;-89
2023/03/21 05:16:51;;;;;;;29.10;15.95;;;8.80;99.90;;;;;;5069675;28;20039;-90
2023/03/21 05:19:24;;;;;;;25.90;16.55;;;8.80;99.90;;;;;;5090639;28;20076;-90
2023/03/21 05:21:50;;;;;;;26.45;16.75;;;;;;;;;;5089412;28;20031;-89
2023/03/21 05:24:19;;;;;;;36.03;18.85;;;8.40;99.90;;;;;;5106613;28;20044;-89
2023/03/21 05:26:49;;;;;;;28.80;17.95;;;11.70;99.90;;;;;;5075510;28;20050;-91
2023/03/21 05:29:16;;;;;;;27.30;18.05;;;10.50;99.90;;;;;;5092364;28;20039;-90
2023/03/21 05:31:43;;;;;;;29.27;17.67;;;8.80;99.90;;;;;;5077204;28;20122;-90
2023/03/21 05:34:10;;;;;;;28.80;19.75;;;9.10;99.90;;;;;;5072739;27;20047;-91
2023/03/21 05:36:36;;;;;;;28.13;19.27;;;11.90;99.90;;;;;;5087828;28;20063;-91
2023/03/21 05:39:02;;;;;;;26.63;16.70;;;9.10;99.90;;;;;;5096677;28;20047;-90
2023/03/21 05:41:28;;;;;;;30.23;16.05;;;8.80;99.90;;;;;;5084878;28;20046;-90
2023/03/21 05:43:54;;;;;;;22.98;15.23;;;;;;;;;;5068115;28;20039;-88
2023/03/21 05:46:20;;;;;;;23.50;16.08;;;8.80;99.90;;;;;;5080558;28;20043;-91
2023/03/21 05:48:45;;;;;;;25.02;14.95;;;8.90;99.90;;;;;;5079704;28;20044;-90
2023/03/21 05:51:14;;;;;;;27.95;15.38;;;11.40;99.90;;;;;;5060058;27;20039;-90
2023/03/21 05:53:40;;;;;;;23.40;15.63;;;12.10;99.90;;;;;;5083517;28;20677;-91
2023/03/21 05:56:06;;;;;;;21.23;15.20;;;11.30;99.90;;;;;;5082058;28;20039;-90
2023/03/21 05:58:32;;;;;;;19.60;14.18;;;;;;;;;;5066224;28;20036;-90
2023/03/21 06:00:58;;;;;;;25.08;15.13;;;;;;;;;;5098663;28;20571;-90
2023/03/21 06:03:24;;;;;;;20.35;13.80;;;;;;;;;;5080689;28;20442;-91
2023/03/21 06:05:50;;;;;;;21.10;13.57;;;8.90;99.90;;;;;;5091000;28;20367;-91
2023/03/21 06:08:16;;;;;;;20.48;13.50;;;;;;;;;;5075000;28;20043;-91
2023/03/21 06:10:42;;;;;;;16.98;12.60;;;8.90;99.90;;;;;;5096971;28;20028;-91
2023/03/21 06:13:08;;;;;;;21.52;15.63;;;;;;;;;;5092014;28;20047;-92
2023/03/21 06:15:35;;;;;;;25.23;15.27;;;8.90;99.90;;;;;;5075083;28;20072;-91
2023/03/21 06:18:00;;;;;;;18.75;13.25;;;8.90;99.90;;;;;;5092633;28;20051;-93
2023/03/21 06:20:27;;;;;;;22.48;15.38;;;;;;;;;;5092307;28;20039;-92
2023/03/21 06:22:52;;;;;;;21.42;13.90;;;8.90;99.90;;;;;;5092555;28;20039;-89
2023/03/21 06:25:18;;;;;;;23.75;15.55;;;11.50;99.90;;;;;;5075995;28;20058;-92
2023/03/21 06:27:44;;;;;;;24.02;15.70;;;9.40;99.90;;;;;;5091208;28;20317;-91
2023/03/21 06:30:10;;;;;;;18.95;14.35;;;12.20;99.90;;;;;;5089829;28;20074;-90
2023/03/21 06:32:36;;;;;;;22.13;15.98;;;;;;;;;;5073046;28;20050;-91
2023/03/21 06:35:03;;;;;;;21.48;14.48;;;;;;;;;;5090039;28;20040;-88
2023/03/21 06:37:29;;;;;;;21.35;15.55;;;;;;;;;;5080249;28;20047;-91
2023/03/21 06:39:59;;;;;;;26.02;15.95;;;8.90;99.90;;;;;;5097925;28;20043;-90
2023/03/21 06:42:29;;;;;;;20.95;14.77;;;;;;;;;;5086489;28;20180;-89
2023/03/21 06:45:00;;;;;;;22.88;15.20;;;8.90;99.90;;;;;;4372071;28;10000457;-89
2023/03/21 06:47:26;;;;;;;22.55;15.80;;;8.80;99.90;;;;;;5034610;22;20125;-89
2023/03/21 06:49:56;;;;;;;20.63;15.65;;;8.90;99.90;;;;;;5024834;28;20183;-89
2023/03/21 06:52:22;;;;;;;19.23;14.82;;;11.80;99.90;;;;;;5006349;28;20041;-90
2023/03/21 06:54:57;;;;;;;27.73;16.70;;;;;;;;;;5006972;28;20037;-91
2023/03/21 06:57:23;;;;;;;23.27;15.20;;;9.00;99.90;;;;;;5019187;28;20429;-90
2023/03/21 06:59:49;;;;;;;25.45;17.02;;;8.90;99.90;;;;;;5008594;28;20048;-91
2023/03/21 07:02:15;;;;;;;19.90;15.50;;;;;;;;;;5022393;28;20509;-88
2023/03/21 07:04:41;;;;;;;23.23;15.75;;;9.00;99.90;;;;;;5024759;28;20124;-91
2023/03/21 07:07:10;;;;;;;23.73;16.33;;;11.90;99.90;;;;;;5007994;28;20041;-91
2023/03/21 07:09:39;;;;;;;23.52;16.88;;;11.10;99.90;;;;;;5010221;28;20048;-90
2023/03/21 07:12:05;;;;;;;19.67;15.32;;;;;;;;;;5027314;28;20041;-92
2023/03/21 07:14:33;;;;;;;20.05;14.73;;;9.00;99.90;;;;;;5023463;28;20461;-91
2023/03/21 07:16:59;;;;;;;20.52;15.35;;;11.60;99.90;;;;;;5009067;28;20433;-93
2023/03/21 07:19:26;;;;;;;22.83;14.77;;;;;;;;;;5020523;28;20048;-92
2023/03/21 07:21:52;;;;;;;22.80;14.85;;;9.00;99.90;;;;;;5004910;28;20477;-92
2023/03/21 07:24:18;;;;;;;15.50;12.75;;;9.00;99.90;;;;;;5018942;28;20044;-89
2023/03/21 07:26:43;;;;;;;16.58;13.27;;;12.30;99.90;;;;;;5025820;28;20033;-89
2023/03/21 07:29:09;;;;;;;17.63;12.68;;;;;;;;;;5022822;28;20054;-89
2023/03/21 07:31:36;;;;;;;16.67;11.20;;;;;;;;;;5025099;28;20042;-89
2023/03/21 07:34:02;;;;;;;13.88;11.85;;;;;;;;;;4998740;28;20408;-93
2023/03/21 07:36:28;;;;;;;16.08;12.23;;;9.00;99.90;;;;;;5007198;28;20050;-91
2023/03/21 07:38:53;;;;;;;14.85;11.10;;;9.50;99.90;;;;;;5022291;28;20041;-88
2023/03/21 07:41:19;;;;;;;13.82;10.73;;;12.20;99.90;;;;;;5006584;28;20183;-92
2023/03/21 07:43:44;;;;;;;11.90;10.25;;;11.50;99.90;;;;;;5004753;28;20037;-90
2023/03/21 07:46:11;;;;;;;13.32;10.40;;;;;;;;;;5017573;28;20382;-89
2023/03/21 07:48:36;;;;;;;10.60;9.50;;;9.10;99.90;;;;;;5006116;28;20398;-88
2023/03/21 07:51:05;;;;;;;10.90;8.80;;;;;;;;;;5026917;28;20044;-87
2023/03/21 07:53:31;;;;;;;10.07;8.98;;;;;;;;;;5029762;28;20071;-89
2023/03/21 07:55:56;;;;;;;11.50;8.80;;;9.10;99.90;;;;;;5029232;28;20045;-87
2023/03/21 07:58:23;;;;;;;10.18;9.05;;;9.10;99.90;;;;;;5032532;28;20397;-89
2023/03/21 08:00:50;;;;;;;9.40;8.40;;;9.10;99.90;;;;;;5015289;28;20045;-88
2023/03/21 08:03:16;;;;;;;9.70;8.70;;;12.10;99.90;;;;;;5027831;28;20044;-92
2023/03/21 08:05:43;;;;;;;10.50;9.23;;;11.00;99.90;;;;;;5028731;28;20127;-90
2023/03/21 08:08:09;;;;;;;11.13;9.20;;;;;;;;;;5028281;28;20033;-88
2023/03/21 08:10:35;;;;;;;9.23;8.32;;;;;;;;;;5029790;28;20382;-91
2023/03/21 08:13:01;;;;;;;9.05;8.10;;;9.10;99.90;;;;;;5014781;28;20527;-90
2023/03/21 08:15:26;;;;;;;10.15;9.02;;;9.20;99.90;;;;;;5030152;28;20037;-88
2023/03/21 08:17:52;;;;;;;14.15;10.52;;;9.20;99.90;;;;;;5013840;28;20500;-86
2023/03/21 08:20:22;;;;;;;9.15;8.10;;;9.00;99.90;;;;;;5030902;28;20417;-86
2023/03/21 08:22:50;;;;;;;11.25;8.02;;;9.20;99.90;;;;;;5013275;28;20047;-92
2023/03/21 08:25:18;;;;;;;8.98;7.57;;;11.40;99.90;;;;;;5028782;28;20559;-90
2023/03/21 08:27:45;;;;;;;8.65;7.57;;;9.80;99.90;;;;;;5030572;28;20504;-92
2023/03/21 08:30:13;;;;;;;7.40;6.65;;;9.30;99.90;;;;;;5047515;28;20043;-90
2023/03/21 08:32:41;;;;;;;7.88;7.18;;;9.10;99.90;;;;;;5014221;28;20467;-91
2023/03/21 08:35:09;;;;;;;6.80;6.15;;;9.60;99.90;;;;;;5046296;28;20431;-91
2023/03/21 08:37:36;;;;;;;9.25;7.43;;;9.20;99.90;;;;;;5028071;28;20123;-91
2023/03/21 08:40:06;;;;;;;9.18;7.20;;;9.20;99.90;;;;;;5028420;28;20094;-90
2023/03/21 08:42:32;;;;;;;6.95;6.25;;;9.10;99.90;;;;;;5014552;28;20056;-89
2023/03/21 08:44:58;;;;;;;6.93;6.20;;;9.20;99.90;;;;;;5028109;28;20481;-92
2023/03/21 08:47:24;;;;;;;6.75;6.15;;;11.70;99.90;;;;;;5029967;28;20496;-92
2023/03/21 08:49:49;;;;;;;9.73;6.28;;;8.80;99.90;;;;;;5030592;28;20404;-92
2023/03/21 08:52:15;;;;;;;6.65;6.05;;;9.20;99.90;;;;;;5012124;28;20040;-91
2023/03/21 08:54:41;;;;;;;8.73;6.93;;;11.50;99.90;;;;;;5026451;28;20122;-88
2023/03/21 08:57:10;;;;;;;11.82;7.28;;;9.40;99.90;;;;;;5014052;28;20037;-90
2023/03/21 08:59:36;;;;;;;11.35;7.28;;;12.40;99.90;;;;;;5047787;28;20047;-89
2023/03/21 09:02:02;;;;;;;11.13;8.07;;;9.20;99.90;;;;;;5051685;28;20043;-88
2023/03/21 09:04:29;;;;;;;13.43;7.47;;;11.80;99.90;;;;;;5033989;28;20120;-87
2023/03/21 09:06:55;;;;;;;14.02;8.57;;;9.20;99.90;;;;;;5024427;28;20037;-87
2023/03/21 09:09:21;;;;;;;12.25;10.05;;;11.90;99.90;;;;;;5052274;28;20056;-90
2023/03/21 09:11:49;;;;;;;16.23;9.70;;;12.30;99.90;;;;;;5034306;28;20420;-89
2023/03/21 09:14:14;;;;;;;15.10;10.80;;;12.00;99.90;;;;;;5032455;28;20102;-88
2023/03/21 09:16:40;;;;;;;17.20;12.40;;;;;;;;;;5016363;28;20045;-87
2023/03/21 09:19:07;;;;;;;21.30;12.98;;;9.20;99.90;;;;;;5030011;28;20456;-89
2023/03/21 09:21:34;;;;;;;15.93;13.73;;;8.70;99.90;;;;;;5015910;28;20083;-90
2023/03/21 09:24:01;;;;;;;18.83;13.18;;;9.10;99.90;;;;;;5017266;28;20095;-87
2023/03/21 09:26:27;;;;;;;21.35;14.13;;;9.20;99.90;;;;;;5016573;28;20068;-88
2023/03/21 09:28:54;;;;;;;20.92;14.52;;;9.30;99.90;;;;;;5034193;28;20041;-90
2023/03/21 09:31:21;;;;;;;24.00;15.15;;;11.30;99.90;;;;;;5051668;28;20037;-90
2023/03/21 09:33:51;;;;;;;20.08;13.88;;;10.70;99.90;;;;;;5015959;28;20621;-89
2023/03/21 09:36:20;;;;;;;16.92;13.25;;;;;;;;;;5016602;28;20045;-89
2023/03/21 09:38:47;;;;;;;23.80;14.25;;;9.30;99.90;;;;;;5034266;28;20519;-89
2023/03/21 09:41:52;;;;;;;29.27;19.20;;;10.00;99.90;;;;;;5016365;28;20411;-90
2023/03/21 09:44:32;;;;;;;19.65;14.65;;;9.10;99.90;;;;;;5033091;28;20083;-89
2023/03/21 09:47:23;;;;;;;18.85;16.27;;;12.70;99.90;;;;;;5032745;28;20292;-89
2023/03/21 09:50:10;;;;;;;22.58;15.45;;;9.30;99.90;;;;;;5011205;28;20041;-90
2023/03/21 09:52:42;;;;;;;18.63;15.75;;;9.20;99.90;;;;;;5009903;28;20045;-87
2023/03/21 09:55:17;;;;;;;23.80;15.85;;;9.60;99.90;;;;;;5032062;28;20045;-86
2023/03/21 09:57:56;;;;;;;26.67;16.60;;;9.40;99.90;;;;;;5016097;28;20493;-90
2023/03/21 10:00:29;;;;;;;22.55;17.38;;;9.20;99.90;;;;;;5032769;28;20064;-89
2023/03/21 10:03:00;;;;;;;23.90;16.95;;;10.50;99.90;;;;;;5016500;28;20041;-89
2023/03/21 10:05:39;;;;;;;24.42;17.23;;;9.20;99.90;;;;;;5016309;28;20110;-89
2023/03/21 10:08:18;;;;;;;24.60;17.35;;;9.20;99.90;;;;;;5050851;28;20043;-88
2023/03/21 10:10:48;;;;;;;22.10;15.60;;;9.20;99.90;;;;;;5026267;28;20098;-88
2023/03/21 10:13:28;;;;;;;23.27;15.50;;;9.20;99.90;;;;;;5031572;28;20157;-89
2023/03/21 10:16:00;;;;;;;29.17;16.58;;;9.40;99.90;;;;;;5015795;28;20037;-88
2023/03/21 10:18:29;;;;;;;27.60;16.52;;;9.10;99.90;;;;;;5033214;28;20048;-89
2023/03/21 10:20:56;;;;;;;25.23;15.32;;;9.40;99.90;;;;;;5033030;28;20041;-89
2023/03/21 10:23:26;;;;;;;26.10;15.98;;;9.20;99.90;;;;;;5032224;28;20635;-88
2023/03/21 10:25:57;;;;;;;23.17;15.05;;;7.20;99.90;;;;;;5016686;28;20033;-88
2023/03/21 10:28:27;;;;;;;20.50;14.00;;;11.00;99.90;;;;;;5015947;28;20431;-88
2023/03/21 10:30:57;;;;;;;24.92;14.65;;;9.20;99.90;;;;;;5050548;28;20040;-88
2023/03/21 10:33:44;;;;;;;23.83;15.52;;;9.30;99.90;;;;;;5015745;28;20053;-88
2023/03/21 10:36:21;;;;;;;25.67;14.73;;;9.30;99.90;;;;;;5015367;28;20068;-88
2023/03/21 10:38:51;;;;;;;26.77;15.10;;;9.40;99.90;;;;;;5016029;28;20052;-88
2023/03/21 10:41:19;;;;;;;23.95;14.90;;;9.40;99.90;;;;;;5013066;28;20052;-89
2023/03/21 10:43:45;;;;;;;21.23;14.60;;;9.30;99.90;;;;;;5014670;28;20059;-89
2023/03/21 10:46:22;;;;;;;24.15;15.18;;;9.40;99.90;;;;;;5014945;28;20037;-89
2023/03/21 10:48:52;;;;;;;24.27;14.93;;;9.50;99.90;;;;;;5016632;28;20137;-89
2023/03/21 10:51:32;;;;;;;20.05;14.18;;;9.50;99.90;;;;;;5031629;28;20049;-89
2023/03/21 10:54:06;;;;;;;28.23;15.50;;;9.60;99.90;;;;;;5029783;28;20131;-89
2023/03/21 10:56:45;;;;;;;21.45;13.90;;;9.60;99.90;;;;;;5029327;28;20041;-88
2023/03/21 10:59:17;;;;;;;31.55;16.00;;;9.70;99.90;;;;;;5047973;28;20098;-88
2023/03/21 11:01:48;;;;;;;20.15;12.95;;;9.80;99.90;;;;;;5024592;28;20037;-88
2023/03/21 11:04:16;;;;;;;23.25;13.82;;;9.90;99.90;;;;;;5038167;28;20080;-88
2023/03/21 11:06:49;;;;;;;23.00;13.77;;;9.80;99.90;;;;;;5031908;28;20041;-88
2023/03/21 11:09:22;;;;;;;25.35;14.18;;;10.30;99.90;;;;;;5049663;28;20049;-87
2023/03/21 11:12:02;;;;;;;19.70;13.32;;;9.90;99.90;;;;;;5032112;28;20477;-87
2023/03/21 11:14:45;;;;;;;21.40;12.70;;;10.10;99.90;;;;;;5014992;28;20045;-88
2023/03/21 11:17:18;;;;;;;17.65;11.52;;;;;;;;;;5031572;28;20052;-88
2023/03/21 11:19:52;;;;;;;19.60;11.55;;;10.00;99.90;;;;;;5030447;28;20071;-88
2023/03/21 11:22:24;;;;;;;17.48;10.88;;;10.00;99.90;;;;;;5014823;28;20040;-88
2023/03/21 11:24:53;;;;;;;20.08;11.68;;;13.30;99.90;;;;;;5031058;28;20036;-87
2023/03/21 11:27:19;;;;;;;20.85;12.13;;;10.20;99.90;;;;;;5030943;28;20049;-88
2023/03/21 11:29:50;;;;;;;18.75;10.93;;;10.30;99.90;;;;;;5015393;28;20033;-88
2023/03/21 11:32:34;;;;;;;17.52;9.85;;;10.20;99.90;;;;;;5030214;28;20190;-88
2023/03/21 11:35:01;;;;;;;16.08;10.38;;;10.30;99.90;;;;;;5047959;28;20083;-88
2023/03/21 11:37:38;;;;;;;22.73;10.80;;;12.00;99.90;;;;;;5031341;28;20413;-88
2023/03/21 11:40:17;;;;;;;16.15;10.75;;;10.40;99.90;;;;;;5030574;28;20040;-88
2023/03/21 11:42:46;;;;;;;12.15;9.88;;;10.40;99.90;;;;;;5008251;28;20516;-88
2023/03/21 11:45:16;;;;;;;16.40;10.73;;;10.40;99.90;;;;;;5014064;28;20344;-88
2023/03/21 11:47:42;;;;;;;13.48;10.45;;;11.20;99.90;;;;;;5011619;28;20049;-88
2023/03/21 11:50:15;;;;;;;15.45;10.80;;;10.50;99.90;;;;;;5022199;28;20439;-88
2023/03/21 11:53:05;;;;;;;14.45;9.82;;;10.50;99.90;;;;;;5041983;28;20045;-88
2023/03/21 11:55:30;;;;;;;16.73;9.20;;;11.20;99.90;;;;;;5029518;28;20083;-88
2023/03/21 11:58:26;;;;;;;14.68;9.07;;;10.50;99.90;;;;;;5014455;28;20492;-88
2023/03/21 12:01:03;;;;;;;14.43;9.93;;;10.50;99.90;;;;;;5007903;28;20156;-88
2023/03/21 12:03:52;;;;;;;20.50;11.43;;;10.60;99.90;;;;;;5028625;28;20049;-88
2023/03/21 12:06:34;;;;;;;15.15;9.82;;;10.50;99.90;;;;;;5001825;28;20052;-88
2023/03/21 12:09:20;;;;;;;18.48;9.40;;;10.50;99.90;;;;;;5030168;28;20396;-87
2023/03/21 12:12:04;;;;;;;16.30;8.82;;;10.60;99.90;;;;;;5024320;28;20049;-87
2023/03/21 12:15:04;;;;;;;20.23;9.02;;;10.60;99.90;;;;;;5030749;28;20045;-86
2023/03/21 12:18:02;;;;;;;15.20;8.70;;;10.50;99.90;;;;;;5029449;28;20127;-87
2023/03/21 12:21:14;;;;;;;12.93;8.82;;;11.20;99.90;;;;;;5048980;28;20091;-87
2023/03/21 12:23:58;;;;;;;13.80;8.85;;;10.70;99.90;;;;;;5005613;28;20395;-87
2023/03/21 12:26:36;;;;;;;13.32;8.32;;;10.50;99.90;;;;;;5013329;28;20123;-87
2023/03/21 12:29:24;;;;;;;11.77;8.38;;;10.60;99.90;;;;;;5030539;28;20156;-87
2023/03/21 12:32:25;;;;;;;16.60;8.93;;;10.40;99.90;;;;;;5047902;28;20033;-87
2023/03/21 12:35:10;;;;;;;15.85;8.10;;;10.40;99.90;;;;;;5021585;28;20049;-87
2023/03/21 12:37:42;;;;;;;13.52;8.57;;;12.40;99.90;;;;;;5022222;28;20052;-87
2023/03/21 12:40:51;;;;;;;14.73;9.38;;;10.50;99.90;;;;;;5029494;28;20053;-87
2023/03/21 12:43:36;;;;;;;12.93;8.57;;;10.50;99.90;;;;;;5027496;28;20123;-86
2023/03/21 12:46:47;;;;;;;13.23;8.18;;;10.40;99.90;;;;;;5029842;28;20036;-87
2023/03/21 12:49:47;;;;;;;16.75;8.00;;;10.50;99.90;;;;;;5026684;28;20293;-87
2023/03/21 12:52:32;;;;;;;15.75;8.57;;;10.50;99.90;;;;;;5025148;28;20049;-87
2023/03/21 12:55:24;;;;;;;15.45;7.88;;;10.50;99.90;;;;;;5042926;28;20045;-87
2023/03/21 12:58:00;;;;;;;14.05;8.30;;;10.60;99.90;;;;;;5012893;28;20045;-87
2023/03/21 13:00:38;;;;;;;15.02;8.45;;;10.60;99.90;;;;;;5030227;28;20114;-86
2023/03/21 13:03:13;;;;;;;17.27;7.97;;;10.60;99.90;;;;;;5029868;28;20040;-87
2023/03/21 13:06:03;;;;;;;18.65;9.00;;;10.50;99.90;;;;;;5017240;28;20479;-86
2023/03/21 13:08:36;;;;;;;17.02;8.18;;;11.00;99.90;;;;;;5029588;28;20049;-87
2023/03/21 13:11:04;;;;;;;12.68;7.47;;;10.80;99.90;;;;;;5013676;28;20040;-87
2023/03/21 13:13:41;;;;;;;14.98;8.27;;;10.70;99.90;;;;;;5029538;28;20045;-87
2023/03/21 13:16:31;;;;;;;11.80;8.10;;;12.70;99.90;;;;;;5047497;28;20037;-87